Time;durP1;ratioP1;P1;durP2;ratioP2;P2;SDS_P1;SDS_P2;PMS_P1;PMS_P2;Temp;Humidity;BMP_temperature;BMP_pressure;BME280_temperature;BME280_humidity;BME280_pressure;Samples;Min_cycle;Max_cycle;Signal;HPM_P1;HPM_P2
2023/12/07 00:01:05;;;;;;;14.80;10.10;;;;;;;;;;4966143;28;20711;-82
2023/12/07 00:04:10;;;;;;;15.47;10.43;;;;;;;;;;4977594;28;20572;-83
2023/12/07 00:07:14;;;;;;;15.97;9.87;;;;;;;;;;4977013;28;20560;-82
2023/12/07 00:10:18;;;;;;;14.87;9.80;;;;;;;;;;4977315;28;20598;-82
2023/12/07 00:13:22;;;;;;;16.77;10.10;;;;;;;;;;4966260;28;20558;-83
2023/12/07 00:16:26;;;;;;;17.90;10.83;;;;;;;;;;4965522;28;20566;-83
2023/12/07 00:19:31;;;;;;;17.57;10.57;;;;;;;;;;4977496;28;20578;-85
2023/12/07 00:22:35;;;;;;;17.73;10.83;;;;;;;;;;4977707;28;20904;-82
2023/12/07 00:25:39;;;;;;;16.20;10.87;;;;;;;;;;4978168;28;20565;-84
2023/12/07 00:28:43;;;;;;;15.90;10.70;;;;;;;;;;4979272;28;20554;-85
2023/12/07 00:31:47;;;;;;;15.47;10.43;;;;;;;;;;4966151;28;20665;-85
2023/12/07 00:34:52;;;;;;;18.00;11.80;;;;;;;;;;4977125;28;20561;-84
2023/12/07 00:37:56;;;;;;;17.13;11.07;;;;;;;;;;4966892;28;21220;-84
2023/12/07 00:41:01;;;;;;;17.93;11.93;;;;;;;;;;4977900;28;20606;-86
2023/12/07 00:44:05;;;;;;;16.10;11.70;;;;;;;;;;4977723;28;21140;-84
2023/12/07 00:47:09;;;;;;;18.60;11.03;;;;;;;;;;4978272;28;20570;-86
2023/12/07 00:50:14;;;;;;;17.17;11.37;;;;;;;;;;4966044;28;20617;-84
2023/12/07 00:53:18;;;;;;;16.47;11.30;;;;;;;;;;4977379;28;20574;-84
2023/12/07 00:56:24;;;;;;;17.47;11.97;;;;;;;;;;4977794;28;20558;-85
2023/12/07 00:59:33;;;;;;;20.77;12.67;;;;;;;;;;4977550;28;20565;-84
2023/12/07 01:02:37;;;;;;;16.77;11.30;;;;;;;;;;4977936;28;20562;-84
2023/12/07 01:05:41;;;;;;;18.43;11.70;;;;;;;;;;4977525;28;20567;-85
2023/12/07 01:08:45;;;;;;;17.83;11.73;;;;;;;;;;4977271;28;20569;-84
2023/12/07 01:11:50;;;;;;;19.53;13.10;;;;;;;;;;4977048;28;20668;-84
2023/12/07 01:14:54;;;;;;;19.73;13.03;;;;;;;;;;4976996;28;20560;-84
2023/12/07 01:17:59;;;;;;;19.13;12.90;;;;;;;;;;4977862;28;20565;-84
2023/12/07 01:21:03;;;;;;;17.60;11.83;;;;;;;;;;4977645;28;20638;-84
2023/12/07 01:24:07;;;;;;;17.53;12.23;;;;;;;;;;4967530;28;20561;-85
2023/12/07 01:27:11;;;;;;;19.20;11.77;;;;;;;;;;4979236;28;20564;-86
2023/12/07 01:30:16;;;;;;;19.50;12.03;;;;;;;;;;4975746;28;20772;-84
2023/12/07 01:33:21;;;;;;;19.03;12.60;;;;;;;;;;4975557;28;20915;-84
2023/12/07 01:36:25;;;;;;;21.07;12.70;;;;;;;;;;4967308;28;21135;-84
2023/12/07 01:39:29;;;;;;;20.80;12.67;;;;;;;;;;4978574;28;21210;-84
2023/12/07 01:42:34;;;;;;;19.47;12.50;;;;;;;;;;4978069;28;20940;-85
2023/12/07 01:45:38;;;;;;;20.50;12.07;;;;;;;;;;4980748;28;20567;-84
2023/12/07 01:48:43;;;;;;;19.53;13.03;;;;;;;;;;4979334;28;20569;-85
2023/12/07 01:51:48;;;;;;;19.20;12.43;;;;;;;;;;4957580;28;20666;-84
2023/12/07 01:54:52;;;;;;;19.97;13.13;;;;;;;;;;4980076;28;20570;-84
2023/12/07 01:57:56;;;;;;;23.27;13.13;;;;;;;;;;4981530;28;20562;-84
2023/12/07 02:01:01;;;;;;;21.17;13.30;;;;;;;;;;4980828;28;20623;-84
2023/12/07 02:04:06;;;;;;;21.37;13.20;;;;;;;;;;4980612;28;20573;-85
2023/12/07 02:07:10;;;;;;;21.43;13.70;;;;;;;;;;4979635;28;21137;-85
2023/12/07 02:10:15;;;;;;;22.30;13.83;;;;;;;;;;4980553;28;20568;-86
2023/12/07 02:13:21;;;;;;;20.37;13.57;;;;;;;;;;4979549;28;20562;-85
2023/12/07 02:16:45;;;;;;;21.60;13.50;;;;;;;;;;4979495;28;20558;-86
2023/12/07 02:20:00;;;;;;;20.27;13.27;;;;;;;;;;4981227;28;20566;-85
2023/12/07 02:23:07;;;;;;;20.93;13.40;;;;;;;;;;4980742;28;20554;-84
2023/12/07 02:26:13;;;;;;;20.33;13.90;;;;;;;;;;4980367;28;20912;-84
2023/12/07 02:29:17;;;;;;;21.17;13.27;;;;;;;;;;4969948;28;20574;-85
2023/12/07 02:32:21;;;;;;;21.83;13.47;;;;;;;;;;4980348;28;20650;-84
2023/12/07 02:35:28;;;;;;;21.33;13.10;;;;;;;;;;4979280;28;20562;-84
2023/12/07 02:38:33;;;;;;;20.50;12.63;;;;;;;;;;4979476;28;20624;-84
2023/12/07 02:41:39;;;;;;;21.03;11.93;;;;;;;;;;4979400;28;20811;-84
2023/12/07 02:44:44;;;;;;;22.53;12.57;;;;;;;;;;4979981;28;20559;-84
2023/12/07 02:47:48;;;;;;;22.40;13.20;;;;;;;;;;4979454;28;20642;-84
2023/12/07 02:50:53;;;;;;;18.07;12.13;;;;;;;;;;4979601;28;20660;-85
2023/12/07 02:53:57;;;;;;;17.23;11.83;;;;;;;;;;4979913;28;20563;-84
2023/12/07 02:57:02;;;;;;;19.73;13.13;;;;;;;;;;4978358;28;20558;-84
2023/12/07 03:00:07;;;;;;;19.97;12.83;;;;;;;;;;4979014;28;20943;-84
2023/12/07 03:03:12;;;;;;;20.30;13.10;;;;;;;;;;4977581;28;20554;-84
2023/12/07 03:06:17;;;;;;;18.17;12.53;;;;;;;;;;4979120;28;20916;-85
2023/12/07 03:09:21;;;;;;;18.00;12.33;;;;;;;;;;4978155;28;20556;-83
2023/12/07 03:12:25;;;;;;;19.27;12.63;;;;;;;;;;4978225;28;20665;-84
2023/12/07 03:15:29;;;;;;;20.07;12.97;;;;;;;;;;4978052;28;20562;-83
2023/12/07 03:18:33;;;;;;;20.50;13.00;;;;;;;;;;4977767;28;20565;-84
2023/12/07 03:21:41;;;;;;;20.37;12.50;;;;;;;;;;4966586;28;21337;-84
2023/12/07 03:24:48;;;;;;;19.27;13.33;;;;;;;;;;4967094;28;20568;-84
2023/12/07 03:27:53;;;;;;;19.67;13.03;;;;;;;;;;4977628;28;20562;-84
2023/12/07 03:30:57;;;;;;;18.97;12.10;;;;;;;;;;4977895;28;20654;-84
2023/12/07 03:34:03;;;;;;;18.80;12.53;;;;;;;;;;4978524;28;20562;-83
2023/12/07 03:37:07;;;;;;;23.00;12.70;;;;;;;;;;4967354;28;20559;-83
2023/12/07 03:40:12;;;;;;;21.67;13.20;;;;;;;;;;4977112;28;20554;-84
2023/12/07 03:43:20;;;;;;;16.93;12.50;;;;;;;;;;4966654;28;20550;-84
2023/12/07 03:46:24;;;;;;;20.90;12.60;;;;;;;;;;4978126;28;20566;-84
2023/12/07 03:49:28;;;;;;;20.57;13.00;;;;;;;;;;4978452;28;20560;-83
2023/12/07 03:52:32;;;;;;;20.07;12.07;;;;;;;;;;4977964;28;20610;-84
2023/12/07 03:55:37;;;;;;;16.97;11.43;;;;;;;;;;4978737;28;20564;-84
2023/12/07 03:58:41;;;;;;;19.03;11.83;;;;;;;;;;4978335;28;20557;-83
2023/12/07 04:01:45;;;;;;;15.70;11.00;;;;;;;;;;4979371;28;20621;-85
2023/12/07 04:04:49;;;;;;;17.40;11.67;;;;;;;;;;4977825;28;20571;-85
2023/12/07 04:07:53;;;;;;;17.00;11.33;;;;;;;;;;4954736;28;20566;-83
2023/12/07 04:10:58;;;;;;;18.73;12.30;;;;;;;;;;4977643;28;20623;-83
2023/12/07 04:14:02;;;;;;;21.83;12.83;;;;;;;;;;4955687;28;20554;-84
2023/12/07 04:17:07;;;;;;;19.23;12.37;;;;;;;;;;4977745;28;20561;-84
2023/12/07 04:20:11;;;;;;;19.87;14.37;;;;;;;;;;4966885;28;20563;-84
2023/12/07 04:23:15;;;;;;;21.23;15.13;;;;;;;;;;4977912;28;20948;-84
2023/12/07 04:26:20;;;;;;;19.97;12.77;;;;;;;;;;4978362;28;21124;-83
2023/12/07 04:29:24;;;;;;;19.80;12.43;;;;;;;;;;4976856;28;20562;-83
2023/12/07 04:32:28;;;;;;;17.33;12.50;;;;;;;;;;4966019;28;20609;-84
2023/12/07 04:35:32;;;;;;;19.17;12.67;;;;;;;;;;4955089;28;20562;-84
2023/12/07 04:38:36;;;;;;;19.17;12.83;;;;;;;;;;4977037;28;20624;-84
2023/12/07 04:41:41;;;;;;;19.33;13.07;;;;;;;;;;4977626;28;20627;-83
2023/12/07 04:44:45;;;;;;;17.77;11.83;;;;;;;;;;4965899;28;20551;-84
2023/12/07 04:47:49;;;;;;;18.30;11.03;;;;;;;;;;4966385;28;20563;-83
2023/12/07 04:50:53;;;;;;;17.03;10.77;;;;;;;;;;4977356;28;21232;-84
2023/12/07 04:53:57;;;;;;;16.07;10.40;;;;;;;;;;4965933;28;20546;-84
2023/12/07 04:57:01;;;;;;;15.23;10.33;;;;;;;;;;4976903;28;20565;-84
2023/12/07 05:00:06;;;;;;;16.83;10.70;;;;;;;;;;4976434;28;20565;-84
2023/12/07 05:03:10;;;;;;;17.53;10.27;;;;;;;;;;4976286;28;20920;-83
2023/12/07 05:06:14;;;;;;;14.13;9.77;;;;;;;;;;4976668;28;20566;-83
2023/12/07 05:09:19;;;;;;;16.13;10.20;;;;;;;;;;4977000;28;20558;-83
2023/12/07 05:12:23;;;;;;;15.17;9.93;;;;;;;;;;4976675;28;20648;-84
2023/12/07 05:15:27;;;;;;;17.47;10.97;;;;;;;;;;4965210;28;20554;-84
2023/12/07 05:18:31;;;;;;;15.03;10.10;;;;;;;;;;4977603;28;20562;-84
2023/12/07 05:21:37;;;;;;;15.97;10.13;;;;;;;;;;4959151;28;20618;-84
2023/12/07 05:24:41;;;;;;;16.07;10.03;;;;;;;;;;4980222;28;20924;-83
2023/12/07 05:27:45;;;;;;;17.63;10.97;;;;;;;;;;4980264;28;20566;-84
2023/12/07 05:30:49;;;;;;;19.00;10.73;;;;;;;;;;4980038;28;20625;-84
2023/12/07 05:33:53;;;;;;;17.70;10.70;;;;;;;;;;4980402;28;20563;-84
2023/12/07 05:36:57;;;;;;;15.20;10.43;;;;;;;;;;4980054;28;20562;-83
2023/12/07 05:40:03;;;;;;;16.83;10.40;;;;;;;;;;4979824;28;20554;-84
2023/12/07 05:43:08;;;;;;;16.60;10.87;;;;;;;;;;4980741;28;20553;-83
2023/12/07 05:46:12;;;;;;;18.10;10.77;;;;;;;;;;4981161;28;20562;-84
2023/12/07 05:49:18;;;;;;;17.57;10.67;;;;;;;;;;4981372;28;20563;-84
2023/12/07 05:52:22;;;;;;;17.40;10.90;;;;;;;;;;4990537;28;20666;-85
2023/12/07 05:55:26;;;;;;;14.30;9.90;;;;;;;;;;4978935;28;21166;-83
2023/12/07 05:58:30;;;;;;;16.20;10.33;;;;;;;;;;4978676;28;20904;-85
2023/12/07 06:01:35;;;;;;;13.93;9.90;;;;;;;;;;4979974;28;20633;-83
2023/12/07 06:04:39;;;;;;;16.40;10.63;;;;;;;;;;4967962;28;20550;-84
2023/12/07 06:07:43;;;;;;;20.60;10.70;;;;;;;;;;4967865;28;20554;-84
2023/12/07 06:10:48;;;;;;;13.67;9.13;;;;;;;;;;4978715;28;20653;-85
2023/12/07 06:13:52;;;;;;;15.70;10.13;;;;;;;;;;4978371;28;20551;-84
2023/12/07 06:16:56;;;;;;;14.70;10.40;;;;;;;;;;4978575;28;20565;-85
2023/12/07 06:20:03;;;;;;;15.37;9.83;;;;;;;;;;4979409;28;21142;-84
2023/12/07 06:23:12;;;;;;;14.77;9.63;;;;;;;;;;4978890;28;20543;-86
2023/12/07 06:26:16;;;;;;;15.73;10.03;;;;;;;;;;4978531;28;20559;-85
2023/12/07 06:29:21;;;;;;;15.80;10.80;;;;;;;;;;4977822;28;20573;-85
2023/12/07 06:32:26;;;;;;;15.27;10.90;;;;;;;;;;4976319;28;20644;-84
2023/12/07 06:35:30;;;;;;;18.90;11.10;;;;;;;;;;4978230;28;20568;-86
2023/12/07 06:38:34;;;;;;;14.40;9.77;;;;;;;;;;4977093;28;20620;-87
2023/12/07 06:41:39;;;;;;;18.07;11.33;;;;;;;;;;4966290;28;20617;-85
2023/12/07 06:44:46;;;;;;;15.30;10.67;;;;;;;;;;4978676;28;20562;-84
2023/12/07 06:47:50;;;;;;;14.60;9.97;;;;;;;;;;4977688;28;20571;-86
2023/12/07 06:50:55;;;;;;;17.60;10.67;;;;;;;;;;4977634;28;20614;-85
2023/12/07 06:54:00;;;;;;;16.63;10.93;;;;;;;;;;4977249;28;20567;-84
2023/12/07 06:57:06;;;;;;;14.80;10.70;;;;;;;;;;4976803;28;20556;-85
2023/12/07 07:00:11;;;;;;;13.77;9.53;;;;;;;;;;4965555;28;20553;-85
2023/12/07 07:03:16;;;;;;;17.00;11.13;;;;;;;;;;4966309;28;20554;-84
2023/12/07 07:06:20;;;;;;;15.37;10.60;;;;;;;;;;4978230;28;20563;-86
2023/12/07 07:09:25;;;;;;;14.07;10.27;;;;;;;;;;4976264;28;20929;-86
2023/12/07 07:12:29;;;;;;;16.17;10.33;;;;;;;;;;4977267;28;20614;-85
2023/12/07 07:15:33;;;;;;;14.77;10.47;;;;;;;;;;4977648;28;20570;-85
2023/12/07 07:18:39;;;;;;;15.13;9.87;;;;;;;;;;4982145;28;20561;-84
2023/12/07 07:21:43;;;;;;;16.10;9.80;;;;;;;;;;4981856;28;20618;-85
2023/12/07 07:24:47;;;;;;;14.30;9.17;;;;;;;;;;4980650;28;20558;-84
2023/12/07 07:27:54;;;;;;;13.17;7.90;;;;;;;;;;4980693;28;20897;-84
2023/12/07 07:30:58;;;;;;;11.50;8.63;;;;;;;;;;4968686;28;20610;-84
2023/12/07 07:34:02;;;;;;;12.37;8.87;;;;;;;;;;4980873;28;20610;-84
2023/12/07 07:37:07;;;;;;;12.13;8.30;;;;;;;;;;4980312;28;20598;-86
2023/12/07 07:40:11;;;;;;;13.43;9.37;;;;;;;;;;4979667;28;20905;-87
2023/12/07 07:43:15;;;;;;;16.10;8.97;;;;;;;;;;4979316;28;20559;-87
2023/12/07 07:46:20;;;;;;;14.73;9.23;;;;;;;;;;4980731;28;20550;-86
2023/12/07 07:49:24;;;;;;;13.17;8.83;;;;;;;;;;4980735;28;20554;-86
2023/12/07 07:52:28;;;;;;;13.73;8.90;;;;;;;;;;4957217;28;20606;-87
2023/12/07 07:55:32;;;;;;;14.57;10.87;;;;;;;;;;4967791;28;20558;-86
2023/12/07 07:58:36;;;;;;;15.93;10.20;;;;;;;;;;4980173;28;20563;-86
2023/12/07 08:01:41;;;;;;;16.10;9.43;;;;;;;;;;4983476;28;20629;-85
2023/12/07 08:04:47;;;;;;;16.73;11.03;;;;;;;;;;4993441;28;20559;-86
2023/12/07 08:07:51;;;;;;;13.00;9.60;;;;;;;;;;4984599;28;20565;-86
2023/12/07 08:10:55;;;;;;;12.73;9.13;;;;;;;;;;4994884;28;20618;-86
2023/12/07 08:13:59;;;;;;;11.63;8.13;;;;;;;;;;4985008;28;21178;-86
2023/12/07 08:17:04;;;;;;;12.43;8.97;;;;;;;;;;4985296;28;20554;-86
2023/12/07 08:20:12;;;;;;;12.80;8.33;;;;;;;;;;4984666;28;20187;-86
2023/12/07 08:23:17;;;;;;;14.13;9.40;;;;;;;;;;4983970;28;20546;-86
2023/12/07 08:26:21;;;;;;;19.17;13.27;;;;;;;;;;4995655;28;20183;-86
2023/12/07 08:29:27;;;;;;;17.37;11.83;;;;;;;;;;4983887;28;20194;-84
2023/12/07 08:32:31;;;;;;;13.17;10.93;;;;;;;;;;4983313;28;20227;-83
2023/12/07 08:35:35;;;;;;;12.67;9.97;;;;;;;;;;4983288;28;20664;-84
2023/12/07 08:38:40;;;;;;;12.87;8.63;;;;;;;;;;4984594;28;20560;-86
2023/12/07 08:41:44;;;;;;;11.83;8.40;;;;;;;;;;4982913;28;20218;-83
2023/12/07 08:44:48;;;;;;;11.43;8.60;;;;;;;;;;4971972;28;20179;-85
2023/12/07 08:47:53;;;;;;;10.10;7.37;;;;;;;;;;4983086;28;20186;-86
2023/12/07 08:50:57;;;;;;;9.90;7.30;;;;;;;;;;4983948;28;20218;-85
2023/12/07 08:54:02;;;;;;;10.37;7.40;;;;;;;;;;4983627;28;20572;-86
2023/12/07 08:57:07;;;;;;;10.00;7.57;;;;;;;;;;4987299;28;20186;-85
2023/12/07 09:00:14;;;;;;;13.37;10.87;;;;;;;;;;4987080;28;20182;-86
2023/12/07 09:03:19;;;;;;;11.63;7.80;;;;;;;;;;4986478;28;20189;-86
2023/12/07 09:06:23;;;;;;;8.83;6.90;;;;;;;;;;4985767;28;20175;-86
2023/12/07 09:09:27;;;;;;;13.00;8.00;;;;;;;;;;4986024;28;20179;-86
2023/12/07 09:12:31;;;;;;;9.13;7.23;;;;;;;;;;4975579;28;20210;-86
2023/12/07 09:15:37;;;;;;;11.13;6.50;;;;;;;;;;4986021;28;20187;-86
2023/12/07 09:18:42;;;;;;;9.47;6.70;;;;;;;;;;4986168;28;20186;-86
2023/12/07 09:21:46;;;;;;;7.77;6.17;;;;;;;;;;4986108;28;20223;-86
2023/12/07 09:24:50;;;;;;;8.07;6.13;;;;;;;;;;4985255;28;20179;-85
2023/12/07 09:27:55;;;;;;;9.00;6.53;;;;;;;;;;4984686;28;20183;-86
2023/12/07 09:31:00;;;;;;;10.27;6.97;;;;;;;;;;4985377;28;20219;-86
2023/12/07 09:34:04;;;;;;;10.13;7.00;;;;;;;;;;4984287;28;20203;-85
2023/12/07 09:37:11;;;;;;;11.43;7.00;;;;;;;;;;4984548;28;20183;-86
2023/12/07 09:40:17;;;;;;;8.57;6.67;;;;;;;;;;4983293;28;20175;-86
2023/12/07 09:43:22;;;;;;;10.07;7.33;;;;;;;;;;4983748;28;20183;-86
2023/12/07 09:46:26;;;;;;;10.17;7.23;;;;;;;;;;4972898;28;20178;-86
2023/12/07 09:49:32;;;;;;;12.10;7.80;;;;;;;;;;4984424;28;20182;-87
2023/12/07 09:52:36;;;;;;;10.67;7.87;;;;;;;;;;4972468;28;20178;-85
2023/12/07 09:55:41;;;;;;;11.03;8.27;;;;;;;;;;4982830;28;20183;-85
2023/12/07 09:58:45;;;;;;;11.63;8.80;;;;;;;;;;4983397;28;20179;-85
2023/12/07 10:01:49;;;;;;;12.17;8.60;;;;;;;;;;4983273;28;20222;-86
2023/12/07 10:05:07;;;;;;;10.67;8.47;;;;;;;;;;4983924;28;20178;-86
2023/12/07 10:08:25;;;;;;;11.17;7.43;;;;;;;;;;4971932;28;20214;-86
2023/12/07 10:11:30;;;;;;;8.23;6.80;;;;;;;;;;4984093;28;20223;-85
2023/12/07 10:14:35;;;;;;;8.47;6.43;;;;;;;;;;4981657;28;20206;-85
2023/12/07 10:17:47;;;;;;;18.23;11.27;;;;;;;;;;4982474;28;20183;-86
2023/12/07 10:20:51;;;;;;;15.30;13.67;;;;;;;;;;4982572;28;20628;-86
2023/12/07 10:23:56;;;;;;;10.07;7.07;;;;;;;;;;4960914;28;20182;-87
2023/12/07 10:27:00;;;;;;;10.00;8.17;;;;;;;;;;4982685;28;20175;-86
2023/12/07 10:30:06;;;;;;;10.97;8.40;;;;;;;;;;4961189;28;20179;-86
2023/12/07 10:33:12;;;;;;;10.47;8.87;;;;;;;;;;4970317;28;20218;-85
2023/12/07 10:36:17;;;;;;;8.10;7.30;;;;;;;;;;4980733;28;20191;-87
2023/12/07 10:39:20;;;;;;;7.60;5.97;;;;;;;;;;4980755;28;20215;-86
2023/12/07 10:42:26;;;;;;;7.17;6.17;;;;;;;;;;4980797;28;20218;-86
2023/12/07 10:45:31;;;;;;;7.30;5.90;;;;;;;;;;4979903;28;20179;-87
2023/12/07 10:48:36;;;;;;;9.53;7.03;;;;;;;;;;4979851;28;20187;-85
2023/12/07 10:51:51;;;;;;;8.17;5.80;;;;;;;;;;4968392;28;20218;-87
2023/12/07 10:55:11;;;;;;;7.40;5.80;;;;;;;;;;4979779;28;20203;-86
2023/12/07 10:58:16;;;;;;;8.93;6.10;;;;;;;;;;4980961;28;20179;-86
2023/12/07 11:01:22;;;;;;;17.07;11.70;;;;;;;;;;4981177;28;20218;-87
2023/12/07 11:04:27;;;;;;;11.37;8.13;;;;;;;;;;4969390;28;20182;-87
2023/12/07 11:07:50;;;;;;;13.00;10.67;;;;;;;;;;4982225;28;20183;-86
2023/12/07 11:11:14;;;;;;;10.00;7.57;;;;;;;;;;4981533;28;20226;-86
2023/12/07 11:14:19;;;;;;;8.97;7.30;;;;;;;;;;4958223;28;20203;-87
2023/12/07 11:17:23;;;;;;;10.27;7.47;;;;;;;;;;4980936;28;20183;-87
2023/12/07 11:20:48;;;;;;;9.63;6.43;;;;;;;;;;4980185;28;20222;-86
2023/12/07 11:23:54;;;;;;;8.30;6.60;;;;;;;;;;4980829;28;20175;-86
2023/12/07 11:26:58;;;;;;;9.50;6.90;;;;;;;;;;4980494;28;20187;-88
2023/12/07 11:30:03;;;;;;;10.83;6.33;;;;;;;;;;4980701;28;20187;-86
2023/12/07 11:33:11;;;;;;;7.57;5.73;;;;;;;;;;4969829;28;20182;-87
2023/12/07 11:36:16;;;;;;;10.60;7.63;;;;;;;;;;4980144;28;20179;-87
2023/12/07 11:39:23;;;;;;;6.97;6.00;;;;;;;;;;4968810;28;20206;-85
2023/12/07 11:42:27;;;;;;;10.87;6.30;;;;;;;;;;4979800;28;20183;-85
2023/12/07 11:45:39;;;;;;;17.60;6.90;;;;;;;;;;4980616;28;20182;-86
2023/12/07 11:48:48;;;;;;;10.83;6.80;;;;;;;;;;4968632;28;20183;-85
2023/12/07 11:51:52;;;;;;;10.47;6.80;;;;;;;;;;4980126;28;20210;-85
2023/12/07 11:54:56;;;;;;;9.37;6.73;;;;;;;;;;4968185;28;20215;-85
2023/12/07 11:58:00;;;;;;;9.63;7.10;;;;;;;;;;4979511;28;20187;-84
2023/12/07 12:01:07;;;;;;;11.13;6.43;;;;;;;;;;4978080;28;20214;-86
2023/12/07 12:04:11;;;;;;;8.43;6.13;;;;;;;;;;4979189;28;20175;-84
2023/12/07 12:07:15;;;;;;;10.27;6.27;;;;;;;;;;4978970;28;20179;-84
2023/12/07 12:10:20;;;;;;;10.77;7.50;;;;;;;;;;4978567;28;20537;-84
2023/12/07 12:13:29;;;;;;;10.83;7.03;;;;;;;;;;4977412;28;20183;-84
2023/12/07 12:16:33;;;;;;;12.37;7.60;;;;;;;;;;4978904;28;20187;-84
2023/12/07 12:19:37;;;;;;;12.03;7.33;;;;;;;;;;4979658;28;20179;-84
2023/12/07 12:22:41;;;;;;;12.13;7.53;;;;;;;;;;4978345;28;20187;-84
2023/12/07 12:25:46;;;;;;;9.67;6.60;;;;;;;;;;4976935;28;20187;-84
2023/12/07 12:28:52;;;;;;;8.93;6.80;;;;;;;;;;4975990;28;20186;-82
2023/12/07 12:31:56;;;;;;;9.63;6.23;;;;;;;;;;4977731;28;20219;-85
2023/12/07 12:35:00;;;;;;;8.60;6.30;;;;;;;;;;4966278;28;20210;-81
2023/12/07 12:38:12;;;;;;;11.17;6.90;;;;;;;;;;4977648;28;20560;-81
2023/12/07 12:41:20;;;;;;;8.83;6.80;;;;;;;;;;4978541;28;20214;-81
2023/12/07 12:44:24;;;;;;;12.23;7.53;;;;;;;;;;4977217;28;20179;-81
2023/12/07 12:47:28;;;;;;;8.20;6.17;;;;;;;;;;4977788;28;20183;-80
2023/12/07 12:50:32;;;;;;;8.90;5.90;;;;;;;;;;4966381;28;20552;-81
2023/12/07 12:53:50;;;;;;;8.33;5.77;;;;;;;;;;4977595;28;20187;-81
2023/12/07 12:56:54;;;;;;;7.17;5.47;;;;;;;;;;4978067;28;20179;-81
2023/12/07 13:00:00;;;;;;;8.43;5.10;;;;;;;;;;4977865;28;20186;-81
2023/12/07 13:03:05;;;;;;;6.90;5.10;;;;;;;;;;4976911;28;20183;-81
2023/12/07 13:06:09;;;;;;;9.77;5.30;;;;;;;;;;4965870;28;20175;-82
2023/12/07 13:09:14;;;;;;;9.90;4.83;;;;;;;;;;4977290;28;20191;-80
2023/12/07 13:12:18;;;;;;;6.97;5.07;;;;;;;;;;4965383;28;20233;-81
2023/12/07 13:15:23;;;;;;;8.67;5.27;;;;;;;;;;4977520;28;20214;-81
2023/12/07 13:18:27;;;;;;;8.17;5.17;;;;;;;;;;4976580;28;20183;-82
2023/12/07 13:21:31;;;;;;;10.87;5.57;;;;;;;;;;4976697;28;20214;-80
2023/12/07 13:24:37;;;;;;;9.63;6.00;;;;;;;;;;4976681;28;20624;-82
2023/12/07 13:27:43;;;;;;;9.10;6.83;;;;;;;;;;4954315;28;20182;-81
2023/12/07 13:30:47;;;;;;;10.17;7.10;;;;;;;;;;4965369;28;20223;-81
2023/12/07 13:33:51;;;;;;;10.63;6.77;;;;;;;;;;4977767;28;20183;-81
2023/12/07 13:36:55;;;;;;;11.20;7.63;;;;;;;;;;4976325;28;20194;-81
2023/12/07 13:39:59;;;;;;;11.93;7.53;;;;;;;;;;4977325;28;20187;-82
2023/12/07 13:43:04;;;;;;;12.03;7.47;;;;;;;;;;4979989;28;20187;-81
2023/12/07 13:46:09;;;;;;;10.47;7.77;;;;;;;;;;4980777;28;20179;-82
2023/12/07 13:49:14;;;;;;;13.40;7.90;;;;;;;;;;4969112;28;20183;-82
2023/12/07 13:52:18;;;;;;;9.70;7.00;;;;;;;;;;4980145;28;20571;-82
2023/12/07 13:55:24;;;;;;;8.80;6.80;;;;;;;;;;4980397;28;20210;-81
2023/12/07 13:58:28;;;;;;;9.70;6.80;;;;;;;;;;4980195;28;20183;-82
2023/12/07 14:01:32;;;;;;;9.83;6.93;;;;;;;;;;4968384;28;20222;-81
2023/12/07 14:04:36;;;;;;;10.23;6.70;;;;;;;;;;4980680;28;20644;-81
2023/12/07 14:07:40;;;;;;;8.13;6.00;;;;;;;;;;4980008;28;20179;-82
2023/12/07 14:10:45;;;;;;;9.60;6.27;;;;;;;;;;4980563;28;20222;-81
2023/12/07 14:13:53;;;;;;;7.40;5.43;;;;;;;;;;4969837;28;20179;-81
2023/12/07 14:16:57;;;;;;;8.97;5.83;;;;;;;;;;4979732;28;20179;-81
2023/12/07 14:20:03;;;;;;;8.23;6.07;;;;;;;;;;4980160;28;20183;-82
2023/12/07 14:23:08;;;;;;;11.70;6.97;;;;;;;;;;4968658;28;20191;-81
2023/12/07 14:26:12;;;;;;;11.90;6.73;;;;;;;;;;4980372;28;20175;-82
2023/12/07 14:29:17;;;;;;;7.13;5.37;;;;;;;;;;4958425;28;20633;-81
2023/12/07 14:32:22;;;;;;;7.87;5.87;;;;;;;;;;4980021;28;20218;-81
2023/12/07 14:35:25;;;;;;;8.40;6.50;;;;;;;;;;4979539;28;20215;-82
2023/12/07 14:38:32;;;;;;;9.77;5.90;;;;;;;;;;4978914;28;20202;-81
2023/12/07 14:41:36;;;;;;;9.17;6.33;;;;;;;;;;4980582;28;20710;-82
2023/12/07 14:44:40;;;;;;;10.17;6.63;;;;;;;;;;4967465;28;20179;-82
2023/12/07 14:47:45;;;;;;;11.93;6.20;;;;;;;;;;4978406;28;20195;-82
2023/12/07 14:50:51;;;;;;;10.50;6.70;;;;;;;;;;4978807;28;20223;-82
2023/12/07 14:53:55;;;;;;;11.03;6.83;;;;;;;;;;4977782;28;20525;-82
2023/12/07 14:57:01;;;;;;;12.83;7.60;;;;;;;;;;4978261;28;20179;-82
2023/12/07 15:00:05;;;;;;;11.00;6.63;;;;;;;;;;4978757;28;20178;-83
2023/12/07 15:03:10;;;;;;;9.37;6.10;;;;;;;;;;4978827;28;20539;-82
2023/12/07 15:06:14;;;;;;;10.47;6.37;;;;;;;;;;4978667;28;20539;-82
2023/12/07 15:09:19;;;;;;;9.67;6.90;;;;;;;;;;4978804;28;20539;-82
2023/12/07 15:12:25;;;;;;;11.57;7.27;;;;;;;;;;4966401;28;20614;-82
2023/12/07 15:15:30;;;;;;;13.00;6.53;;;;;;;;;;4966660;28;20606;-82
2023/12/07 15:18:35;;;;;;;11.87;7.53;;;;;;;;;;4978150;28;20543;-83
2023/12/07 15:21:40;;;;;;;10.27;6.77;;;;;;;;;;4977456;28;20621;-82
2023/12/07 15:24:44;;;;;;;11.27;7.30;;;;;;;;;;4978708;28;21087;-83
2023/12/07 15:27:48;;;;;;;10.63;6.77;;;;;;;;;;4977575;28;20574;-82
2023/12/07 15:30:52;;;;;;;10.93;7.40;;;;;;;;;;4977322;28;20626;-83
2023/12/07 15:33:56;;;;;;;13.10;7.87;;;;;;;;;;4977372;28;21138;-82
2023/12/07 15:37:00;;;;;;;15.53;7.70;;;;;;;;;;4989299;28;21087;-84
2023/12/07 15:40:09;;;;;;;12.67;7.07;;;;;;;;;;4977184;28;20559;-82
2023/12/07 15:43:13;;;;;;;10.83;6.73;;;;;;;;;;4978633;28;20556;-82
2023/12/07 15:46:18;;;;;;;10.03;7.07;;;;;;;;;;4978180;28;20544;-83
2023/12/07 15:49:22;;;;;;;10.93;7.50;;;;;;;;;;4978319;28;20917;-82
2023/12/07 15:52:26;;;;;;;15.43;7.97;;;;;;;;;;4966678;28;20618;-82
2023/12/07 15:55:30;;;;;;;9.10;6.97;;;;;;;;;;4977883;28;20709;-82
2023/12/07 15:58:34;;;;;;;12.90;8.60;;;;;;;;;;4966536;28;21083;-82
2023/12/07 16:01:38;;;;;;;13.53;7.93;;;;;;;;;;4978979;28;21213;-82
2023/12/07 16:04:42;;;;;;;14.13;8.43;;;;;;;;;;4978370;28;20544;-82
2023/12/07 16:07:47;;;;;;;17.27;8.47;;;;;;;;;;4967492;28;21106;-82
2023/12/07 16:10:51;;;;;;;12.17;7.63;;;;;;;;;;4978280;28;20620;-83
2023/12/07 16:13:56;;;;;;;14.67;8.90;;;;;;;;;;4966715;28;20559;-82
2023/12/07 16:17:01;;;;;;;13.70;8.47;;;;;;;;;;4978797;28;20547;-83
2023/12/07 16:20:10;;;;;;;14.57;8.97;;;;;;;;;;4967113;28;20568;-83
2023/12/07 16:23:14;;;;;;;15.73;9.60;;;;;;;;;;4977717;28;20574;-82
2023/12/07 16:26:18;;;;;;;17.63;9.60;;;;;;;;;;4978929;28;20927;-83
2023/12/07 16:29:22;;;;;;;13.70;8.93;;;;;;;;;;4977918;28;20539;-82
2023/12/07 16:32:26;;;;;;;16.33;9.57;;;;;;;;;;4977115;28;20631;-82
2023/12/07 16:35:32;;;;;;;14.97;9.33;;;;;;;;;;4987599;28;20625;-83
2023/12/07 16:38:40;;;;;;;14.63;9.83;;;;;;;;;;4977434;28;20628;-82
2023/12/07 16:41:45;;;;;;;19.50;11.80;;;;;;;;;;4964827;28;20997;-82
2023/12/07 16:44:52;;;;;;;19.53;11.53;;;;;;;;;;4964434;28;20546;-81
2023/12/07 16:47:55;;;;;;;19.07;11.33;;;;;;;;;;4974986;28;20569;-82
2023/12/07 16:51:00;;;;;;;18.20;10.67;;;;;;;;;;4975497;28;20625;-81
2023/12/07 16:54:04;;;;;;;22.97;12.60;;;;;;;;;;4975327;28;20558;-81
2023/12/07 16:57:08;;;;;;;20.60;13.20;;;;;;;;;;4975150;28;21194;-82
2023/12/07 17:00:13;;;;;;;24.77;13.60;;;;;;;;;;4975297;28;20550;-81
2023/12/07 17:03:19;;;;;;;25.57;14.50;;;;;;;;;;4975940;28;20542;-83
2023/12/07 17:06:24;;;;;;;24.83;14.73;;;;;;;;;;4975598;28;20546;-82
2023/12/07 17:09:28;;;;;;;24.87;15.73;;;;;;;;;;4964785;28;21138;-84
2023/12/07 17:12:32;;;;;;;26.30;15.97;;;;;;;;;;4975813;28;20562;-83
2023/12/07 17:15:36;;;;;;;23.87;14.67;;;;;;;;;;4978558;28;20621;-84
2023/12/07 17:18:41;;;;;;;24.73;15.43;;;;;;;;;;4968706;28;20542;-83
2023/12/07 17:21:47;;;;;;;31.23;17.40;;;;;;;;;;4968840;28;21208;-84
2023/12/07 17:24:51;;;;;;;29.40;15.63;;;;;;;;;;4980112;28;20549;-85
2023/12/07 17:27:55;;;;;;;26.83;15.40;;;;;;;;;;4979198;28;20565;-84
2023/12/07 17:30:59;;;;;;;29.50;17.93;;;;;;;;;;4979309;28;20620;-84
2023/12/07 17:34:03;;;;;;;28.53;17.70;;;;;;;;;;4968505;28;20565;-84
2023/12/07 17:37:08;;;;;;;29.67;17.37;;;;;;;;;;4979324;28;20682;-85
2023/12/07 17:40:00;;;;;;;28.27;17.47;;;;;;;;;;5094525;27;20355;-85
2023/12/07 17:43:05;;;;;;;29.47;18.40;;;;;;;;;;5073738;28;20542;-84
2023/12/07 17:46:09;;;;;;;29.23;17.90;;;;;;;;;;5062205;28;20534;-85
2023/12/07 17:49:14;;;;;;;30.13;17.40;;;;;;;;;;5073500;28;20534;-84
2023/12/07 17:52:18;;;;;;;32.70;17.77;;;;;;;;;;5084632;28;20606;-84
2023/12/07 17:55:22;;;;;;;33.93;19.27;;;;;;;;;;5062289;28;20885;-84
2023/12/07 17:58:26;;;;;;;30.50;18.57;;;;;;;;;;5074608;28;20590;-85
2023/12/07 18:01:30;;;;;;;30.33;17.80;;;;;;;;;;5061655;28;20956;-84
2023/12/07 18:04:35;;;;;;;30.40;18.57;;;;;;;;;;5073906;28;20550;-84
2023/12/07 18:07:39;;;;;;;33.97;19.93;;;;;;;;;;5061757;28;20539;-84